createdAt,value
2017-03-01T00:00:00.322Z,989.82
2017-03-01T00:00:40.793Z,989.75
2017-03-01T00:01:21.390Z,989.76
2017-03-01T00:02:01.843Z,989.7
2017-03-01T00:02:42.351Z,989.75
2017-03-01T00:03:22.883Z,989.73
2017-03-01T00:04:03.364Z,989.76
2017-03-01T00:04:43.883Z,989.76
2017-03-01T00:05:24.337Z,989.92
2017-03-01T00:06:04.870Z,989.78
2017-03-01T00:06:45.418Z,989.78
2017-03-01T00:07:25.903Z,989.81
2017-03-01T00:08:06.342Z,989.88
2017-03-01T00:08:46.834Z,990
2017-03-01T00:09:27.392Z,989.82
2017-03-01T00:10:07.812Z,990
2017-03-01T00:10:48.277Z,989.85
2017-03-01T00:11:28.797Z,989.82
2017-03-01T00:12:09.255Z,989.77
2017-03-01T00:12:49.883Z,989.89
2017-03-01T00:13:30.300Z,989.85
2017-03-01T00:14:10.807Z,989.91
2017-03-01T00:14:51.275Z,989.88
2017-03-01T00:15:31.796Z,989.91
2017-03-01T00:16:12.292Z,990.04
2017-03-01T00:16:52.804Z,989.93
2017-03-01T00:17:33.322Z,990.02
2017-03-01T00:18:13.847Z,989.93
2017-03-01T00:18:54.349Z,989.91
2017-03-01T00:19:34.826Z,989.96
2017-03-01T00:20:15.358Z,989.86
2017-03-01T00:20:55.923Z,989.94
2017-03-01T00:21:36.487Z,989.91
2017-03-01T00:22:16.911Z,989.93
2017-03-01T00:22:57.463Z,989.97
2017-03-01T00:23:37.948Z,989.92
2017-03-01T00:24:18.467Z,990.01
2017-03-01T00:24:58.979Z,989.92
2017-03-01T00:25:39.466Z,989.94
2017-03-01T00:26:19.963Z,989.88
2017-03-01T00:27:00.441Z,989.92
2017-03-01T00:27:40.949Z,989.89
2017-03-01T00:28:21.479Z,989.91
2017-03-01T00:29:01.923Z,989.89
2017-03-01T00:29:42.446Z,989.92
2017-03-01T00:30:23.063Z,989.96
2017-03-01T00:31:03.673Z,989.96
2017-03-01T00:31:44.090Z,989.97
2017-03-01T00:32:24.578Z,989.88
2017-03-01T00:33:05.033Z,989.97
2017-03-01T00:33:45.575Z,989.96
2017-03-01T00:34:26.190Z,989.95
2017-03-01T00:35:06.649Z,989.95
2017-03-01T00:35:47.118Z,990.03
2017-03-01T00:36:27.671Z,989.92
2017-03-01T00:37:08.121Z,989.9
2017-03-01T00:37:48.622Z,989.97
2017-03-01T00:38:29.098Z,989.92
2017-03-01T00:39:09.614Z,989.9
2017-03-01T00:39:50.095Z,990.02
2017-03-01T00:40:30.604Z,989.87
2017-03-01T00:41:11.109Z,989.91
2017-03-01T00:41:51.650Z,989.93
2017-03-01T00:42:32.152Z,989.95
2017-03-01T00:43:12.704Z,989.9
2017-03-01T00:43:53.182Z,989.97
2017-03-01T00:44:33.749Z,989.98
2017-03-01T00:45:14.192Z,989.95
2017-03-01T00:45:54.686Z,989.96
2017-03-01T00:46:35.161Z,989.92
2017-03-01T00:47:15.672Z,989.99
2017-03-01T00:47:56.238Z,989.96
2017-03-01T00:48:36.685Z,990.03
2017-03-01T00:49:17.205Z,990.04
2017-03-01T00:49:57.685Z,990
2017-03-01T00:50:38.129Z,989.99
2017-03-01T00:51:18.665Z,990.04
2017-03-01T00:51:59.433Z,990.03
2017-03-01T00:52:39.749Z,990.05
2017-03-01T00:53:20.325Z,990.09
2017-03-01T00:54:00.826Z,990.14
2017-03-01T00:54:41.287Z,990.07
2017-03-01T00:55:21.756Z,990.01
2017-03-01T00:56:02.314Z,990.09
2017-03-01T00:56:42.787Z,990.2
2017-03-01T00:57:23.617Z,990.1
2017-03-01T00:58:04.203Z,990.11
2017-03-01T00:58:44.728Z,990.07
2017-03-01T00:59:25.208Z,990.08
2017-03-01T01:00:05.695Z,990.17
2017-03-01T01:00:46.193Z,990.16
2017-03-01T01:01:26.756Z,990.23
2017-03-01T01:02:07.343Z,990.19
2017-03-01T01:02:47.806Z,990.25
2017-03-01T01:03:28.268Z,990.14
2017-03-01T01:04:08.809Z,990.21
2017-03-01T01:04:49.379Z,990.27
2017-03-01T01:05:29.921Z,990.3
2017-03-01T01:06:10.385Z,990.2
2017-03-01T01:06:50.860Z,990.34
2017-03-01T01:07:31.440Z,990.3
2017-03-01T01:08:11.960Z,990.32
2017-03-01T01:08:52.485Z,990.25
2017-03-01T01:09:33.010Z,990.22
2017-03-01T01:10:13.507Z,990.24
2017-03-01T01:10:53.994Z,990.24
2017-03-01T01:11:34.511Z,990.26
2017-03-01T01:12:15.089Z,990.3
2017-03-01T01:12:55.545Z,990.3
2017-03-01T01:13:35.995Z,990.42
2017-03-01T01:14:16.499Z,990.32
2017-03-01T01:14:56.995Z,990.33
2017-03-01T01:15:37.569Z,990.39
2017-03-01T01:16:17.997Z,990.3
2017-03-01T01:16:58.576Z,990.43
2017-03-01T01:17:38.980Z,990.38
2017-03-01T01:18:19.491Z,990.36
2017-03-01T01:19:00.039Z,990.32
2017-03-01T01:19:40.486Z,990.46
2017-03-01T01:20:20.948Z,990.39
2017-03-01T01:21:01.438Z,990.41
2017-03-01T01:21:41.981Z,990.37
2017-03-01T01:22:23.421Z,990.3
2017-03-01T01:23:02.976Z,990.67
2017-03-01T01:23:43.544Z,990.37
2017-03-01T01:24:24.047Z,990.49
2017-03-01T01:25:04.591Z,990.48
2017-03-01T01:25:45.083Z,990.36
2017-03-01T01:26:25.590Z,990.73
2017-03-01T01:27:06.066Z,990.51
2017-03-01T01:27:46.538Z,990.51
2017-03-01T01:28:27.021Z,990.47
2017-03-01T01:29:07.461Z,990.42
2017-03-01T01:29:48.809Z,990.25
2017-03-01T01:30:29.315Z,990.28
2017-03-01T01:31:09.861Z,990.4
2017-03-01T01:31:51.372Z,990.28
2017-03-01T01:32:31.908Z,990.36
2017-03-01T01:33:12.486Z,990.29
2017-03-01T01:33:52.989Z,990.3
2017-03-01T01:34:33.523Z,990.41
2017-03-01T01:35:14.006Z,990.35
2017-03-01T01:35:54.433Z,990.21
2017-03-01T01:36:34.948Z,990.36
2017-03-01T01:37:15.400Z,990.23
2017-03-01T01:37:55.917Z,990.34
2017-03-01T01:38:36.372Z,990.5
2017-03-01T01:39:16.809Z,990.39
2017-03-01T01:39:57.363Z,990.38
2017-03-01T01:40:37.716Z,990.41
2017-03-01T01:41:18.287Z,990.43
2017-03-01T01:41:58.877Z,990.44
2017-03-01T01:42:39.326Z,990.3
2017-03-01T01:43:19.805Z,990.32
2017-03-01T01:44:00.419Z,990.33
2017-03-01T01:44:40.870Z,990.37
2017-03-01T01:45:21.456Z,990.22
2017-03-01T01:46:01.858Z,990.32
2017-03-01T01:46:42.421Z,990.39
2017-03-01T01:47:22.926Z,990.37
2017-03-01T01:48:03.365Z,990.28
2017-03-01T01:48:43.866Z,990.37
2017-03-01T01:49:24.452Z,990.5
2017-03-01T01:50:04.944Z,990.2
2017-03-01T01:50:45.418Z,990.47
2017-03-01T01:51:25.899Z,990.27
2017-03-01T01:52:06.372Z,990.44
2017-03-01T01:52:46.960Z,990.13
2017-03-01T01:53:27.547Z,990.26
2017-03-01T01:54:08.029Z,990.38
2017-03-01T01:54:48.607Z,990.22
2017-03-01T01:55:29.030Z,990.14
2017-03-01T01:56:09.475Z,990.22
2017-03-01T01:56:49.968Z,990.22
2017-03-01T01:57:30.536Z,990.31
2017-03-01T01:58:11.030Z,990.22
2017-03-01T01:58:51.428Z,990.26
2017-03-01T01:59:31.948Z,990.22
2017-03-01T02:00:12.445Z,990.13
2017-03-01T02:00:52.896Z,990.11
2017-03-01T02:01:33.417Z,990.07
2017-03-01T02:02:13.955Z,990.24
2017-03-01T02:02:54.490Z,990.2
2017-03-01T02:03:35.027Z,990.21
2017-03-01T02:04:15.464Z,990.35
2017-03-01T02:04:55.977Z,990.28
2017-03-01T02:05:36.609Z,990
2017-03-01T02:06:17.126Z,990.16
2017-03-01T02:06:57.615Z,990.2
2017-03-01T02:07:38.092Z,990.17
2017-03-01T02:08:18.545Z,990.23
2017-03-01T02:08:59.097Z,990.35
2017-03-01T02:09:39.599Z,990.2
2017-03-01T02:10:20.045Z,990.18
2017-03-01T02:11:00.488Z,990.16
2017-03-01T02:11:40.973Z,990.15
2017-03-01T02:12:21.465Z,990.17
2017-03-01T02:13:01.990Z,990.15
2017-03-01T02:13:42.404Z,990.14
2017-03-01T02:14:22.859Z,990.3
2017-03-01T02:15:03.335Z,990.24
2017-03-01T02:15:43.877Z,990.24
2017-03-01T02:16:24.322Z,990.2
2017-03-01T02:17:04.797Z,990.24
2017-03-01T02:17:45.280Z,990.32
2017-03-01T02:18:25.833Z,990.35
2017-03-01T02:19:06.334Z,990.36
2017-03-01T02:19:46.835Z,990.21
2017-03-01T02:20:27.346Z,990.21
2017-03-01T02:21:07.807Z,990.29
2017-03-01T02:21:48.308Z,990.17
2017-03-01T02:22:28.784Z,990.26
2017-03-01T02:23:09.279Z,990.29
2017-03-01T02:23:49.710Z,990.33
2017-03-01T02:24:30.198Z,990.3
2017-03-01T02:25:10.717Z,990.22
2017-03-01T02:25:51.167Z,990.31
2017-03-01T02:26:31.753Z,990.2
2017-03-01T02:27:12.299Z,990.26
2017-03-01T02:27:52.753Z,990.32
2017-03-01T02:28:33.217Z,990.29
2017-03-01T02:29:13.696Z,990.43
2017-03-01T02:29:54.139Z,990.35
2017-03-01T02:30:34.655Z,990.27
2017-03-01T02:31:15.179Z,990.3
2017-03-01T02:31:55.785Z,990.43
2017-03-01T02:32:36.278Z,990.45
2017-03-01T02:33:16.756Z,990.43
2017-03-01T02:33:57.195Z,990.4
2017-03-01T02:34:37.703Z,990.43
2017-03-01T02:35:18.153Z,990.36
2017-03-01T02:35:58.616Z,990.42
2017-03-01T02:36:39.134Z,990.34
2017-03-01T02:37:19.693Z,990.48
2017-03-01T02:38:00.155Z,990.47
2017-03-01T02:38:40.683Z,990.51
2017-03-01T02:39:21.049Z,990.43
2017-03-01T02:40:01.583Z,990.55
2017-03-01T02:40:42.053Z,990.43
2017-03-01T02:41:22.574Z,990.45
2017-03-01T02:42:03.100Z,990.42
2017-03-01T02:42:43.541Z,990.41
2017-03-01T02:43:24.088Z,990.49
2017-03-01T02:44:04.765Z,990.45
2017-03-01T02:44:45.279Z,990.44
2017-03-01T02:45:25.773Z,990.41
2017-03-01T02:46:06.251Z,990.49
2017-03-01T02:46:46.667Z,990.4
2017-03-01T02:47:27.213Z,990.5
2017-03-01T02:48:07.708Z,990.37
2017-03-01T02:48:48.179Z,990.37
2017-03-01T02:49:28.805Z,990.37
2017-03-01T02:50:09.262Z,990.4
2017-03-01T02:50:49.755Z,990.47
2017-03-01T02:51:30.222Z,990.42
2017-03-01T02:52:10.679Z,990.38
2017-03-01T02:52:51.180Z,990.52
2017-03-01T02:53:31.645Z,990.34
2017-03-01T02:54:12.111Z,990.41
2017-03-01T02:54:52.590Z,990.33
2017-03-01T02:55:33.082Z,990.39
2017-03-01T02:56:13.583Z,990.48
2017-03-01T02:56:54.100Z,990.52
2017-03-01T02:57:34.660Z,990.48
2017-03-01T02:58:15.078Z,990.44
2017-03-01T02:58:55.633Z,990.61
2017-03-01T02:59:36.190Z,990.48
2017-03-01T03:00:16.751Z,990.46
2017-03-01T03:00:58.748Z,990.51
2017-03-01T03:01:39.115Z,990.41
2017-03-01T03:02:19.645Z,990.57
2017-03-01T03:03:00.185Z,990.82
2017-03-01T03:03:40.668Z,990.45
2017-03-01T03:04:21.171Z,990.63
2017-03-01T03:05:01.720Z,990.49
2017-03-01T03:05:42.174Z,990.56
2017-03-01T03:06:22.682Z,990.61
2017-03-01T03:07:03.167Z,990.62
2017-03-01T03:07:43.649Z,990.75
2017-03-01T03:08:24.204Z,990.5
2017-03-01T03:09:04.795Z,990.53
2017-03-01T03:09:45.264Z,990.51
2017-03-01T03:10:25.754Z,990.53
2017-03-01T03:11:07.710Z,990.59
2017-03-01T03:11:48.204Z,990.53
2017-03-01T03:12:28.737Z,990.53
2017-03-01T03:13:09.336Z,990.58
2017-03-01T03:13:49.704Z,990.53
2017-03-01T03:14:30.231Z,990.46
2017-03-01T03:15:10.691Z,990.59
2017-03-01T03:15:51.197Z,990.47
2017-03-01T03:16:31.736Z,990.39
2017-03-01T03:17:12.263Z,990.7
2017-03-01T03:17:52.659Z,990.76
2017-03-01T03:18:33.230Z,990.61
2017-03-01T03:19:14.532Z,990.61
2017-03-01T03:19:56.023Z,990.64
2017-03-01T03:20:36.469Z,990.61
2017-03-01T03:21:17.907Z,990.67
2017-03-01T03:21:58.431Z,990.68
2017-03-01T03:22:38.911Z,990.64
2017-03-01T03:23:20.486Z,990.67
2017-03-01T03:24:01.853Z,990.68
2017-03-01T03:24:45.340Z,990.92
2017-03-01T03:25:25.868Z,990.81
2017-03-01T03:26:06.382Z,990.56
2017-03-01T03:26:46.933Z,990.61
2017-03-01T03:27:27.413Z,990.63
2017-03-01T03:28:07.869Z,990.61
2017-03-01T03:28:48.323Z,990.63
2017-03-01T03:29:28.851Z,990.53
2017-03-01T03:30:09.275Z,990.61
2017-03-01T03:30:49.741Z,990.72
2017-03-01T03:31:30.222Z,990.61
2017-03-01T03:32:10.759Z,990.58
2017-03-01T03:32:51.186Z,990.67
2017-03-01T03:33:31.684Z,990.71
2017-03-01T03:34:12.132Z,990.69
2017-03-01T03:34:52.607Z,990.64
2017-03-01T03:35:33.049Z,990.67
2017-03-01T03:36:13.540Z,990.68
2017-03-01T03:36:53.999Z,990.68
2017-03-01T03:37:34.527Z,990.7
2017-03-01T03:38:14.956Z,990.65
2017-03-01T03:38:55.450Z,990.7
2017-03-01T03:39:35.908Z,990.87
2017-03-01T03:40:16.490Z,990.86
2017-03-01T03:40:56.998Z,990.89
2017-03-01T03:41:37.373Z,990.71
2017-03-01T03:42:17.947Z,990.78
2017-03-01T03:42:58.478Z,990.72
2017-03-01T03:43:39.011Z,990.73
2017-03-01T03:44:19.521Z,990.77
2017-03-01T03:44:59.980Z,990.75
2017-03-01T03:45:40.495Z,990.89
2017-03-01T03:46:20.918Z,990.9
2017-03-01T03:47:01.421Z,990.87
2017-03-01T03:47:41.905Z,990.92
2017-03-01T03:48:22.391Z,990.92
2017-03-01T03:49:02.844Z,990.86
2017-03-01T03:49:43.346Z,990.8
2017-03-01T03:50:23.790Z,990.83
2017-03-01T03:51:04.252Z,990.87
2017-03-01T03:51:44.816Z,990.93
2017-03-01T03:52:25.317Z,990.98
2017-03-01T03:53:05.725Z,990.82
2017-03-01T03:53:46.221Z,991.03
2017-03-01T03:54:26.637Z,990.81
2017-03-01T03:55:07.222Z,990.89
2017-03-01T03:55:47.762Z,991.03
2017-03-01T03:56:28.219Z,990.91
2017-03-01T03:57:08.669Z,990.89
2017-03-01T03:57:49.132Z,990.88
2017-03-01T03:58:29.762Z,990.92
2017-03-01T03:59:10.273Z,990.83
2017-03-01T03:59:50.733Z,990.88
2017-03-01T04:00:31.280Z,990.92
2017-03-01T04:01:11.764Z,991.03
2017-03-01T04:01:52.209Z,990.97
2017-03-01T04:02:32.819Z,990.92
2017-03-01T04:03:13.310Z,991.02
2017-03-01T04:03:53.694Z,990.98
2017-03-01T04:04:34.225Z,990.99
2017-03-01T04:05:14.704Z,991.04
2017-03-01T04:05:55.253Z,991.02
2017-03-01T04:06:35.700Z,991.02
2017-03-01T04:07:16.230Z,991.07
2017-03-01T04:07:56.751Z,991.14
2017-03-01T04:08:37.216Z,991.09
2017-03-01T04:09:17.854Z,991.09
2017-03-01T04:09:58.495Z,991.07
2017-03-01T04:10:38.935Z,990.98
2017-03-01T04:11:19.581Z,991.1
2017-03-01T04:12:00.897Z,991.03
2017-03-01T04:12:40.613Z,991.12
2017-03-01T04:13:21.074Z,991.03
2017-03-01T04:14:01.598Z,991.14
2017-03-01T04:14:42.063Z,991.04
2017-03-01T04:15:22.487Z,991.1
2017-03-01T04:16:03.038Z,991.08
2017-03-01T04:16:43.708Z,991.07
2017-03-01T04:17:24.151Z,990.95
2017-03-01T04:18:04.632Z,991.03
2017-03-01T04:18:45.162Z,991.14
2017-03-01T04:19:25.657Z,990.97
2017-03-01T04:20:06.206Z,991.02
2017-03-01T04:20:46.780Z,991.29
2017-03-01T04:21:27.228Z,991.4
2017-03-01T04:22:07.713Z,991.26
2017-03-01T04:22:48.255Z,991.14
2017-03-01T04:23:28.848Z,991.13
2017-03-01T04:24:09.301Z,991.15
2017-03-01T04:24:49.879Z,991.1
2017-03-01T04:25:30.327Z,991.14
2017-03-01T04:26:10.815Z,991.16
2017-03-01T04:26:51.339Z,991.17
2017-03-01T04:27:31.825Z,991.1
2017-03-01T04:28:12.328Z,991.08
2017-03-01T04:28:52.845Z,991.35
2017-03-01T04:29:33.498Z,991.28
2017-03-01T04:30:13.953Z,991.14
2017-03-01T04:30:54.407Z,991.24
2017-03-01T04:31:34.903Z,991.26
2017-03-01T04:32:15.346Z,991.22
2017-03-01T04:32:55.822Z,991.2
2017-03-01T04:33:36.351Z,991.26
2017-03-01T04:34:16.916Z,991.22
2017-03-01T04:34:57.393Z,991.31
2017-03-01T04:35:37.835Z,991.44
2017-03-01T04:36:18.317Z,991.2
2017-03-01T04:36:58.794Z,991.35
2017-03-01T04:37:39.287Z,991.32
2017-03-01T04:38:19.755Z,991.23
2017-03-01T04:39:00.359Z,991.25
2017-03-01T04:39:40.710Z,991.3
2017-03-01T04:40:21.262Z,991.25
2017-03-01T04:41:01.722Z,991.32
2017-03-01T04:41:42.235Z,991.41
2017-03-01T04:42:22.580Z,991.38
2017-03-01T04:43:03.085Z,991.37
2017-03-01T04:43:43.532Z,991.4
2017-03-01T04:44:24.032Z,991.45
2017-03-01T04:45:04.571Z,991.32
2017-03-01T04:45:45.013Z,991.34
2017-03-01T04:46:25.528Z,991.49
2017-03-01T04:47:05.965Z,991.37
2017-03-01T04:47:46.480Z,991.42
2017-03-01T04:48:26.999Z,991.59
2017-03-01T04:49:07.516Z,991.6
2017-03-01T04:49:47.902Z,991.45
2017-03-01T04:50:28.371Z,991.66
2017-03-01T04:51:08.940Z,991.51
2017-03-01T04:51:49.614Z,991.59
2017-03-01T04:52:30.032Z,991.66
2017-03-01T04:53:10.525Z,991.59
2017-03-01T04:53:51.010Z,991.56
2017-03-01T04:54:31.596Z,991.61
2017-03-01T04:55:12.116Z,991.57
2017-03-01T04:55:52.587Z,991.57
2017-03-01T04:56:33.128Z,991.8
2017-03-01T04:57:13.574Z,991.61
2017-03-01T04:57:54.065Z,991.59
2017-03-01T04:58:34.615Z,991.67
2017-03-01T04:59:15.082Z,991.7
2017-03-01T04:59:55.512Z,991.63
2017-03-01T05:00:35.936Z,991.59
2017-03-01T05:01:16.405Z,991.55
2017-03-01T05:01:57.106Z,991.78
2017-03-01T05:02:37.590Z,991.61
2017-03-01T05:03:18.134Z,991.64
2017-03-01T05:03:58.596Z,991.73
2017-03-01T05:04:39.107Z,991.72
2017-03-01T05:05:19.632Z,991.7
2017-03-01T05:06:00.081Z,991.63
2017-03-01T05:06:40.511Z,991.62
2017-03-01T05:07:21.069Z,991.63
2017-03-01T05:08:01.513Z,991.68
2017-03-01T05:08:42.040Z,991.61
2017-03-01T05:09:22.537Z,991.69
2017-03-01T05:10:02.958Z,991.6
2017-03-01T05:10:43.449Z,991.71
2017-03-01T05:11:27.468Z,991.64
2017-03-01T05:12:08.816Z,991.84
2017-03-01T05:12:49.383Z,991.66
2017-03-01T05:13:30.132Z,991.74
2017-03-01T05:14:13.013Z,991.79
2017-03-01T05:37:10.779Z,991.92
2017-03-01T05:38:00.344Z,991.92
2017-03-01T05:38:52.068Z,991.93
2017-03-01T05:39:46.641Z,991.91
2017-03-01T05:40:40.020Z,991.92
2017-03-01T05:41:34.506Z,992.05
2017-03-01T05:42:32.030Z,991.95
2017-03-01T05:43:23.925Z,991.96
2017-03-01T05:44:14.830Z,991.92
2017-03-01T05:45:04.715Z,992.05
2017-03-01T05:45:56.328Z,992.02
2017-03-01T05:46:47.310Z,991.93
2017-03-01T05:47:36.421Z,992
2017-03-01T05:48:25.558Z,991.98
2017-03-01T05:49:15.108Z,992.05
2017-03-01T05:50:04.311Z,992
2017-03-01T05:50:52.902Z,992.11
2017-03-01T05:51:42.552Z,992
2017-03-01T05:52:31.469Z,992.08
2017-03-01T05:53:20.400Z,992.11
2017-03-01T05:54:09.588Z,992.15
2017-03-01T05:54:58.195Z,992.12
2017-03-01T05:55:47.082Z,992.12
2017-03-01T05:56:35.717Z,992.07
2017-03-01T05:57:25.087Z,992.15
2017-03-01T05:58:14.476Z,992.08
2017-03-01T05:59:03.486Z,992.13
2017-03-01T05:59:53.529Z,992.19
2017-03-01T06:00:42.824Z,992.19
2017-03-01T06:01:31.896Z,992.24
2017-03-01T06:02:20.488Z,992.22
2017-03-01T06:03:10.221Z,992.33
2017-03-01T06:03:58.872Z,992.36
2017-03-01T06:04:51.510Z,992.32
2017-03-01T06:05:41.850Z,992.24
2017-03-01T06:06:32.024Z,992.31
2017-03-01T06:07:20.791Z,992.24
2017-03-01T06:08:09.819Z,992.3
2017-03-01T06:08:58.707Z,992.44
2017-03-01T06:09:48.392Z,992.32
2017-03-01T06:10:36.557Z,992.33
2017-03-01T06:11:27.927Z,992.35
2017-03-01T06:12:17.821Z,992.35
2017-03-01T06:13:02.209Z,992.4
2017-03-01T06:13:50.479Z,992.46
2017-03-01T06:14:38.887Z,992.48
2017-03-01T06:15:20.040Z,992.45
2017-03-01T06:16:00.551Z,992.46
2017-03-01T06:16:41.090Z,992.4
2017-03-01T06:17:21.637Z,992.46
2017-03-01T06:18:02.176Z,992.39
2017-03-01T06:18:42.723Z,992.47
2017-03-01T06:19:23.341Z,992.4
2017-03-01T06:20:03.865Z,992.49
2017-03-01T06:20:44.364Z,992.55
2017-03-01T06:21:24.830Z,992.56
2017-03-01T06:22:05.285Z,992.46
2017-03-01T06:22:45.778Z,992.61
2017-03-01T06:23:26.242Z,992.68
2017-03-01T06:24:07.580Z,992.57
2017-03-01T06:24:48.059Z,992.57
2017-03-01T06:25:28.532Z,992.67
2017-03-01T06:26:09.061Z,992.53
2017-03-01T06:26:49.664Z,992.66
2017-03-01T06:27:30.227Z,992.57
2017-03-01T06:28:10.796Z,992.52
2017-03-01T06:28:51.290Z,992.67
2017-03-01T06:29:31.793Z,992.6
2017-03-01T06:30:12.283Z,992.67
2017-03-01T06:30:53.056Z,992.62
2017-03-01T06:31:33.548Z,992.64
2017-03-01T06:32:14.101Z,992.66
2017-03-01T06:32:54.549Z,992.84
2017-03-01T06:33:35.766Z,992.73
2017-03-01T06:34:16.269Z,992.71
2017-03-01T06:34:56.725Z,992.76
2017-03-01T06:35:37.202Z,992.77
2017-03-01T06:36:17.713Z,992.8
2017-03-01T06:36:58.226Z,992.77
2017-03-01T06:37:38.662Z,992.88
2017-03-01T06:38:19.215Z,992.82
2017-03-01T06:38:59.666Z,992.85
2017-03-01T06:39:40.317Z,992.8
2017-03-01T06:40:20.771Z,992.85
2017-03-01T06:41:01.229Z,992.86
2017-03-01T06:41:41.738Z,992.92
2017-03-01T06:42:22.240Z,992.99
2017-03-01T06:43:02.742Z,992.99
2017-03-01T06:43:43.227Z,992.95
2017-03-01T06:44:23.663Z,993.01
2017-03-01T06:45:04.153Z,992.99
2017-03-01T06:45:44.632Z,993.03
2017-03-01T06:46:27.077Z,992.99
2017-03-01T06:47:07.588Z,993.02
2017-03-01T06:47:48.096Z,993.03
2017-03-01T06:48:28.994Z,993.06
2017-03-01T06:49:09.503Z,993.08
2017-03-01T06:49:50.023Z,993.08
2017-03-01T06:50:30.477Z,993.03
2017-03-01T06:51:11.022Z,993.13
2017-03-01T06:51:51.510Z,993.07
2017-03-01T06:52:32.056Z,993.22
2017-03-01T06:53:12.548Z,993.16
2017-03-01T06:53:53.066Z,993.13
2017-03-01T06:54:33.551Z,993.15
2017-03-01T06:55:14.106Z,993.17
2017-03-01T06:55:54.587Z,993.21
2017-03-01T06:56:35.095Z,993.26
2017-03-01T06:57:15.546Z,993.28
2017-03-01T06:57:56.046Z,993.16
2017-03-01T06:58:36.540Z,993.17
2017-03-01T06:59:17.058Z,993.13
2017-03-01T06:59:57.552Z,993.26
2017-03-01T07:00:38.086Z,993.24
2017-03-01T07:01:18.572Z,993.25
2017-03-01T07:01:59.058Z,993.29
2017-03-01T07:02:39.526Z,993.4
2017-03-01T07:03:20.086Z,993.25
2017-03-01T07:04:00.567Z,993.22
2017-03-01T07:04:41.018Z,993.26
2017-03-01T07:05:24.204Z,993.25
2017-03-01T07:06:04.780Z,993.3
2017-03-01T07:06:45.302Z,993.28
2017-03-01T07:07:25.748Z,993.24
2017-03-01T07:08:07.053Z,993.31
2017-03-01T07:08:47.576Z,993.26
2017-03-01T07:09:28.040Z,993.29
2017-03-01T07:10:08.543Z,993.22
2017-03-01T07:10:49.054Z,993.18
2017-03-01T07:11:29.538Z,993.26
2017-03-01T07:12:10.033Z,993.24
2017-03-01T07:12:53.502Z,993.27
2017-03-01T07:13:33.996Z,993.29
2017-03-01T07:14:14.520Z,993.32
2017-03-01T07:14:55.801Z,993.28
2017-03-01T07:15:36.321Z,993.37
2017-03-01T07:16:19.677Z,993.28
2017-03-01T07:17:00.055Z,993.29
2017-03-01T07:17:43.199Z,993.34
2017-03-01T07:18:23.752Z,993.35
2017-03-01T07:19:09.844Z,993.23
2017-03-01T07:19:51.909Z,993.39
2017-03-01T07:22:14.397Z,993.26
2017-03-01T07:23:03.076Z,993.41
2017-03-01T07:23:51.114Z,993.46
2017-03-01T07:24:39.808Z,993.36
2017-03-01T07:25:31.283Z,993.34
2017-03-01T07:26:20.523Z,993.34
2017-03-01T07:27:12.748Z,993.45
2017-03-01T07:28:01.618Z,993.41
2017-03-01T07:28:49.822Z,993.46
2017-03-01T07:29:39.549Z,993.44
2017-03-01T07:30:28.977Z,993.45
2017-03-01T07:31:18.124Z,993.4
2017-03-01T07:32:06.439Z,993.5
2017-03-01T07:32:55.691Z,993.47
2017-03-01T07:33:45.692Z,993.53
2017-03-01T07:34:34.243Z,993.59
2017-03-01T07:35:22.475Z,993.54
2017-03-01T07:36:02.539Z,993.49
2017-03-01T07:36:42.985Z,993.46
2017-03-01T07:37:23.489Z,993.58
2017-03-01T07:38:03.937Z,993.64
2017-03-01T07:38:44.467Z,993.56
2017-03-01T07:39:24.936Z,993.64
2017-03-01T07:40:05.421Z,993.61
2017-03-01T07:40:45.900Z,993.59
2017-03-01T07:41:26.342Z,993.66
2017-03-01T07:42:10.159Z,993.62
2017-03-01T07:42:50.814Z,993.61
2017-03-01T07:43:31.282Z,993.62
2017-03-01T07:44:11.830Z,993.65
2017-03-01T07:44:52.314Z,993.63
2017-03-01T07:45:32.837Z,993.69
2017-03-01T07:46:13.372Z,993.66
2017-03-01T07:46:53.898Z,993.69
2017-03-01T07:47:34.377Z,993.62
2017-03-01T07:48:14.848Z,993.63
2017-03-01T07:48:55.343Z,993.65
2017-03-01T07:49:35.880Z,993.66
2017-03-01T07:50:16.371Z,993.64
2017-03-01T07:50:56.812Z,993.7
2017-03-01T07:51:37.327Z,993.69
2017-03-01T07:52:17.867Z,993.62
2017-03-01T07:52:58.375Z,993.72
2017-03-01T07:53:38.886Z,993.66
2017-03-01T07:54:19.402Z,993.72
2017-03-01T07:54:59.929Z,993.65
2017-03-01T07:55:40.403Z,993.66
2017-03-01T07:56:20.884Z,993.72
2017-03-01T07:57:01.358Z,993.65
2017-03-01T07:57:41.823Z,993.68
2017-03-01T07:58:22.375Z,993.61
2017-03-01T07:59:02.819Z,993.69
2017-03-01T07:59:43.311Z,993.7
2017-03-01T08:00:23.815Z,993.76
2017-03-01T08:01:04.333Z,993.72
2017-03-01T08:01:44.740Z,993.79
2017-03-01T08:02:25.251Z,993.79
2017-03-01T08:03:05.711Z,993.8
2017-03-01T08:03:46.198Z,993.85
2017-03-01T08:04:26.742Z,993.78
2017-03-01T08:05:07.251Z,993.8
2017-03-01T08:05:47.775Z,993.89
2017-03-01T08:06:28.281Z,993.93
2017-03-01T08:07:08.760Z,993.86
2017-03-01T08:07:49.294Z,993.87
2017-03-01T08:08:29.817Z,993.91
2017-03-01T08:09:10.268Z,993.9
2017-03-01T08:09:50.796Z,993.91
2017-03-01T08:10:31.218Z,993.99
2017-03-01T08:11:11.771Z,993.95
2017-03-01T08:11:52.227Z,993.94
2017-03-01T08:12:32.825Z,993.92
2017-03-01T08:13:13.186Z,993.93
2017-03-01T08:13:53.813Z,993.84
2017-03-01T08:14:34.277Z,993.9
2017-03-01T08:15:15.072Z,993.89
2017-03-01T08:15:56.442Z,993.96
2017-03-01T08:16:37.256Z,993.88
2017-03-01T08:17:18.493Z,993.91
2017-03-01T08:18:00.763Z,993.89
2017-03-01T08:18:43.964Z,993.91
2017-03-01T08:19:24.562Z,993.92
2017-03-01T08:20:10.158Z,993.85
2017-03-01T08:20:52.991Z,994.01
2017-03-01T08:31:41.844Z,994.09
2017-03-01T08:32:38.573Z,994.08
2017-03-01T08:33:38.580Z,994.05
2017-03-01T08:36:57.456Z,994.06
2017-03-01T08:40:43.020Z,994.08
2017-03-01T08:41:35.173Z,994.11
2017-03-01T08:44:11.273Z,994.08
2017-03-01T08:46:17.576Z,994.2
2017-03-01T08:47:13.388Z,994.18
2017-03-01T08:48:09.077Z,994.29
2017-03-01T08:49:34.127Z,994.22
2017-03-01T08:51:18.522Z,994.11
2017-03-01T08:53:25.659Z,994.25
2017-03-01T08:54:12.835Z,994.26
2017-03-01T08:55:01.805Z,994.28
2017-03-01T08:55:50.683Z,994.24
2017-03-01T08:56:31.932Z,994.24
2017-03-01T08:57:12.367Z,994.33
2017-03-01T08:57:52.839Z,994.5
2017-03-01T08:58:33.393Z,994.48
2017-03-01T08:59:14.927Z,994.32
2017-03-01T08:59:57.038Z,994.48
2017-03-01T09:00:38.008Z,994.41
2017-03-01T09:01:18.681Z,994.51
2017-03-01T09:01:59.158Z,994.66
2017-03-01T09:02:39.612Z,994.63
2017-03-01T09:03:20.147Z,994.76
2017-03-01T09:04:00.606Z,994.71
2017-03-01T09:04:41.179Z,994.62
2017-03-01T09:05:21.646Z,994.6
2017-03-01T09:06:02.130Z,994.63
2017-03-01T09:06:44.382Z,994.73
2017-03-01T09:07:24.839Z,994.64
2017-03-01T09:08:09.216Z,994.58
2017-03-01T09:08:49.646Z,994.52
2017-03-01T09:09:31.199Z,994.6
2017-03-01T09:10:18.304Z,994.64
2017-03-01T09:11:03.684Z,994.58
2017-03-01T09:11:46.899Z,994.54
2017-03-01T09:12:30.031Z,994.69
2017-03-01T09:13:11.160Z,994.68
2017-03-01T09:13:51.611Z,994.72
2017-03-01T09:14:32.128Z,994.82
2017-03-01T09:15:12.878Z,994.71
2017-03-01T09:15:54.251Z,994.67
2017-03-01T09:16:34.745Z,994.73
2017-03-01T09:17:15.230Z,994.67
2017-03-01T09:17:55.737Z,994.8
2017-03-01T09:18:37.530Z,994.77
2017-03-01T09:19:18.023Z,994.79
2017-03-01T09:20:02.138Z,994.86
2017-03-01T09:20:43.776Z,994.99
2017-03-01T09:21:24.247Z,994.74
2017-03-01T09:22:10.900Z,994.79
2017-03-01T09:22:58.356Z,994.91
2017-03-01T09:23:47.030Z,994.9
2017-03-01T09:24:35.613Z,994.9
2017-03-01T09:25:17.292Z,994.8
2017-03-01T09:26:00.585Z,994.95
2017-03-01T09:26:41.125Z,994.92